sensor_id;sensor_type;location;lat;lon;timestamp;P1;durP1;ratioP1;P2;durP2;ratioP2
84866;SDS011;75123;51.788;4.654;2024-01-11T00:00:13;25.84;;;25.50;;
84866;SDS011;75123;51.788;4.654;2024-01-11T00:02:38;25.57;;;25.27;;
84866;SDS011;75123;51.788;4.654;2024-01-11T00:05:04;25.07;;;24.69;;
84866;SDS011;75123;51.788;4.654;2024-01-11T00:07:30;24.65;;;24.27;;
84866;SDS011;75123;51.788;4.654;2024-01-11T00:09:55;24.90;;;24.64;;
84866;SDS011;75123;51.788;4.654;2024-01-11T00:12:21;25.23;;;24.95;;
84866;SDS011;75123;51.788;4.654;2024-01-11T00:14:46;25.13;;;24.79;;
84866;SDS011;75123;51.788;4.654;2024-01-11T00:17:12;24.81;;;24.54;;
84866;SDS011;75123;51.788;4.654;2024-01-11T00:19:37;24.25;;;23.93;;
84866;SDS011;75123;51.788;4.654;2024-01-11T00:22:03;25.22;;;24.75;;
84866;SDS011;75123;51.788;4.654;2024-01-11T00:24:28;24.43;;;24.13;;
84866;SDS011;75123;51.788;4.654;2024-01-11T00:26:54;25.06;;;24.69;;
84866;SDS011;75123;51.788;4.654;2024-01-11T00:29:19;25.71;;;25.32;;
84866;SDS011;75123;51.788;4.654;2024-01-11T00:31:45;25.73;;;25.41;;
84866;SDS011;75123;51.788;4.654;2024-01-11T00:34:10;25.32;;;24.83;;
84866;SDS011;75123;51.788;4.654;2024-01-11T00:36:36;25.14;;;24.75;;
84866;SDS011;75123;51.788;4.654;2024-01-11T00:39:02;25.98;;;25.53;;
84866;SDS011;75123;51.788;4.654;2024-01-11T00:41:27;26.17;;;25.81;;
84866;SDS011;75123;51.788;4.654;2024-01-11T00:43:53;24.73;;;24.26;;
84866;SDS011;75123;51.788;4.654;2024-01-11T00:46:18;25.70;;;25.28;;
84866;SDS011;75123;51.788;4.654;2024-01-11T00:48:44;26.06;;;25.70;;
84866;SDS011;75123;51.788;4.654;2024-01-11T00:51:09;25.40;;;25.00;;
84866;SDS011;75123;51.788;4.654;2024-01-11T00:53:35;25.95;;;25.50;;
84866;SDS011;75123;51.788;4.654;2024-01-11T00:56:01;26.28;;;25.84;;
84866;SDS011;75123;51.788;4.654;2024-01-11T00:58:26;25.82;;;25.30;;
84866;SDS011;75123;51.788;4.654;2024-01-11T01:00:52;25.56;;;25.16;;
84866;SDS011;75123;51.788;4.654;2024-01-11T01:03:18;25.42;;;25.00;;
84866;SDS011;75123;51.788;4.654;2024-01-11T01:05:45;24.91;;;24.43;;
84866;SDS011;75123;51.788;4.654;2024-01-11T01:08:11;24.81;;;24.42;;
84866;SDS011;75123;51.788;4.654;2024-01-11T01:10:37;24.36;;;24.00;;
84866;SDS011;75123;51.788;4.654;2024-01-11T01:13:02;25.76;;;25.22;;
84866;SDS011;75123;51.788;4.654;2024-01-11T01:15:28;25.30;;;24.93;;
84866;SDS011;75123;51.788;4.654;2024-01-11T01:17:53;25.10;;;24.75;;
84866;SDS011;75123;51.788;4.654;2024-01-11T01:20:19;23.88;;;23.55;;
84866;SDS011;75123;51.788;4.654;2024-01-11T01:22:44;25.41;;;24.90;;
84866;SDS011;75123;51.788;4.654;2024-01-11T01:25:10;24.85;;;24.52;;
84866;SDS011;75123;51.788;4.654;2024-01-11T01:27:35;25.48;;;25.09;;
84866;SDS011;75123;51.788;4.654;2024-01-11T01:30:01;26.54;;;26.11;;
84866;SDS011;75123;51.788;4.654;2024-01-11T01:32:26;25.15;;;24.81;;
84866;SDS011;75123;51.788;4.654;2024-01-11T01:34:52;25.64;;;25.31;;
84866;SDS011;75123;51.788;4.654;2024-01-11T01:37:17;26.73;;;26.34;;
84866;SDS011;75123;51.788;4.654;2024-01-11T01:39:43;26.91;;;26.43;;
84866;SDS011;75123;51.788;4.654;2024-01-11T01:42:08;26.57;;;26.00;;
84866;SDS011;75123;51.788;4.654;2024-01-11T01:44:34;26.43;;;26.04;;
84866;SDS011;75123;51.788;4.654;2024-01-11T01:47:00;26.01;;;25.73;;
84866;SDS011;75123;51.788;4.654;2024-01-11T01:49:26;26.32;;;25.96;;
84866;SDS011;75123;51.788;4.654;2024-01-11T01:51:52;26.34;;;25.82;;
84866;SDS011;75123;51.788;4.654;2024-01-11T01:54:18;26.70;;;26.14;;
84866;SDS011;75123;51.788;4.654;2024-01-11T01:56:46;27.09;;;26.60;;
84866;SDS011;75123;51.788;4.654;2024-01-11T01:59:12;25.86;;;25.49;;
84866;SDS011;75123;51.788;4.654;2024-01-11T02:01:40;26.46;;;26.08;;
84866;SDS011;75123;51.788;4.654;2024-01-11T02:04:05;26.72;;;26.23;;
84866;SDS011;75123;51.788;4.654;2024-01-11T02:06:31;26.07;;;25.61;;
84866;SDS011;75123;51.788;4.654;2024-01-11T02:08:59;26.28;;;25.80;;
84866;SDS011;75123;51.788;4.654;2024-01-11T02:11:28;26.93;;;26.30;;
84866;SDS011;75123;51.788;4.654;2024-01-11T02:13:53;25.88;;;25.54;;
84866;SDS011;75123;51.788;4.654;2024-01-11T02:16:19;26.27;;;25.79;;
84866;SDS011;75123;51.788;4.654;2024-01-11T02:18:44;26.28;;;25.81;;
84866;SDS011;75123;51.788;4.654;2024-01-11T02:21:11;26.11;;;25.59;;
84866;SDS011;75123;51.788;4.654;2024-01-11T02:23:43;27.67;;;27.13;;
84866;SDS011;75123;51.788;4.654;2024-01-11T02:26:13;27.09;;;26.49;;
84866;SDS011;75123;51.788;4.654;2024-01-11T02:28:43;25.80;;;25.40;;
84866;SDS011;75123;51.788;4.654;2024-01-11T02:31:09;26.17;;;25.65;;
84866;SDS011;75123;51.788;4.654;2024-01-11T02:33:36;25.91;;;25.26;;
84866;SDS011;75123;51.788;4.654;2024-01-11T02:36:01;25.83;;;25.40;;
84866;SDS011;75123;51.788;4.654;2024-01-11T02:38:27;26.15;;;25.77;;
84866;SDS011;75123;51.788;4.654;2024-01-11T02:40:53;26.33;;;25.83;;
84866;SDS011;75123;51.788;4.654;2024-01-11T02:43:20;25.61;;;25.18;;
84866;SDS011;75123;51.788;4.654;2024-01-11T02:45:45;25.23;;;24.95;;
84866;SDS011;75123;51.788;4.654;2024-01-11T02:48:11;26.02;;;25.65;;
84866;SDS011;75123;51.788;4.654;2024-01-11T02:50:36;25.60;;;25.14;;
84866;SDS011;75123;51.788;4.654;2024-01-11T02:53:02;26.32;;;25.99;;
84866;SDS011;75123;51.788;4.654;2024-01-11T02:55:27;26.06;;;25.55;;
84866;SDS011;75123;51.788;4.654;2024-01-11T02:57:53;26.31;;;25.86;;
84866;SDS011;75123;51.788;4.654;2024-01-11T03:00:18;26.21;;;25.69;;
84866;SDS011;75123;51.788;4.654;2024-01-11T03:02:44;26.96;;;26.34;;
84866;SDS011;75123;51.788;4.654;2024-01-11T03:05:09;25.96;;;25.63;;
84866;SDS011;75123;51.788;4.654;2024-01-11T03:07:35;26.40;;;26.00;;
84866;SDS011;75123;51.788;4.654;2024-01-11T03:10:01;26.57;;;26.04;;
84866;SDS011;75123;51.788;4.654;2024-01-11T03:12:26;26.42;;;25.97;;
84866;SDS011;75123;51.788;4.654;2024-01-11T03:14:52;26.16;;;25.73;;
84866;SDS011;75123;51.788;4.654;2024-01-11T03:17:17;26.52;;;26.12;;
84866;SDS011;75123;51.788;4.654;2024-01-11T03:19:43;27.26;;;26.82;;
84866;SDS011;75123;51.788;4.654;2024-01-11T03:22:08;26.89;;;26.27;;
84866;SDS011;75123;51.788;4.654;2024-01-11T03:24:37;26.56;;;26.00;;
84866;SDS011;75123;51.788;4.654;2024-01-11T03:27:03;26.98;;;26.39;;
84866;SDS011;75123;51.788;4.654;2024-01-11T03:29:29;26.66;;;26.24;;
84866;SDS011;75123;51.788;4.654;2024-01-11T03:31:54;26.22;;;25.81;;
84866;SDS011;75123;51.788;4.654;2024-01-11T03:34:19;26.65;;;26.20;;
84866;SDS011;75123;51.788;4.654;2024-01-11T03:36:45;26.52;;;26.04;;
84866;SDS011;75123;51.788;4.654;2024-01-11T03:39:10;27.17;;;26.62;;
84866;SDS011;75123;51.788;4.654;2024-01-11T03:41:36;26.15;;;25.57;;
84866;SDS011;75123;51.788;4.654;2024-01-11T03:44:01;26.17;;;25.72;;
84866;SDS011;75123;51.788;4.654;2024-01-11T03:46:27;26.61;;;26.07;;
84866;SDS011;75123;51.788;4.654;2024-01-11T03:48:52;26.17;;;25.56;;
84866;SDS011;75123;51.788;4.654;2024-01-11T03:51:18;26.59;;;26.06;;
84866;SDS011;75123;51.788;4.654;2024-01-11T03:53:43;28.00;;;27.23;;
84866;SDS011;75123;51.788;4.654;2024-01-11T03:56:09;27.38;;;26.70;;
84866;SDS011;75123;51.788;4.654;2024-01-11T03:58:35;26.52;;;26.07;;
84866;SDS011;75123;51.788;4.654;2024-01-11T04:01:01;26.30;;;25.75;;
84866;SDS011;75123;51.788;4.654;2024-01-11T04:03:27;26.41;;;25.87;;
84866;SDS011;75123;51.788;4.654;2024-01-11T04:05:52;27.54;;;27.01;;
84866;SDS011;75123;51.788;4.654;2024-01-11T04:08:18;26.86;;;26.35;;
84866;SDS011;75123;51.788;4.654;2024-01-11T04:10:44;26.79;;;26.32;;
84866;SDS011;75123;51.788;4.654;2024-01-11T04:13:09;26.95;;;26.32;;
84866;SDS011;75123;51.788;4.654;2024-01-11T04:15:35;27.42;;;26.83;;
84866;SDS011;75123;51.788;4.654;2024-01-11T04:18:01;26.82;;;26.22;;
84866;SDS011;75123;51.788;4.654;2024-01-11T04:20:26;27.09;;;26.62;;
84866;SDS011;75123;51.788;4.654;2024-01-11T04:22:52;28.39;;;27.82;;
84866;SDS011;75123;51.788;4.654;2024-01-11T04:25:17;28.11;;;27.47;;
84866;SDS011;75123;51.788;4.654;2024-01-11T04:27:43;28.18;;;27.47;;
84866;SDS011;75123;51.788;4.654;2024-01-11T04:30:08;29.52;;;28.84;;
84866;SDS011;75123;51.788;4.654;2024-01-11T04:32:34;27.84;;;27.33;;
84866;SDS011;75123;51.788;4.654;2024-01-11T04:34:59;27.92;;;27.29;;
84866;SDS011;75123;51.788;4.654;2024-01-11T04:37:25;35.02;;;34.56;;
84866;SDS011;75123;51.788;4.654;2024-01-11T04:39:50;28.51;;;28.02;;
84866;SDS011;75123;51.788;4.654;2024-01-11T04:42:16;30.02;;;29.39;;
84866;SDS011;75123;51.788;4.654;2024-01-11T04:44:41;29.03;;;28.49;;
84866;SDS011;75123;51.788;4.654;2024-01-11T04:47:07;29.35;;;28.70;;
84866;SDS011;75123;51.788;4.654;2024-01-11T04:49:33;29.87;;;29.27;;
84866;SDS011;75123;51.788;4.654;2024-01-11T04:51:59;29.10;;;28.62;;
84866;SDS011;75123;51.788;4.654;2024-01-11T04:54:24;29.58;;;29.15;;
84866;SDS011;75123;51.788;4.654;2024-01-11T04:56:50;30.66;;;30.07;;
84866;SDS011;75123;51.788;4.654;2024-01-11T04:59:15;30.22;;;29.60;;
84866;SDS011;75123;51.788;4.654;2024-01-11T05:01:41;29.85;;;29.14;;
84866;SDS011;75123;51.788;4.654;2024-01-11T05:04:07;29.67;;;29.04;;
84866;SDS011;75123;51.788;4.654;2024-01-11T05:06:32;30.08;;;29.45;;
84866;SDS011;75123;51.788;4.654;2024-01-11T05:08:58;31.18;;;30.57;;
84866;SDS011;75123;51.788;4.654;2024-01-11T05:11:23;32.18;;;31.43;;
84866;SDS011;75123;51.788;4.654;2024-01-11T05:13:50;31.76;;;30.83;;
84866;SDS011;75123;51.788;4.654;2024-01-11T05:16:23;33.92;;;32.82;;
84866;SDS011;75123;51.788;4.654;2024-01-11T05:18:52;32.01;;;31.41;;
84866;SDS011;75123;51.788;4.654;2024-01-11T05:21:20;33.30;;;32.25;;
84866;SDS011;75123;51.788;4.654;2024-01-11T05:23:46;33.63;;;32.87;;
84866;SDS011;75123;51.788;4.654;2024-01-11T05:26:13;34.44;;;33.75;;
84866;SDS011;75123;51.788;4.654;2024-01-11T05:28:40;34.17;;;33.46;;
84866;SDS011;75123;51.788;4.654;2024-01-11T05:31:13;33.97;;;33.39;;
84866;SDS011;75123;51.788;4.654;2024-01-11T05:33:42;34.92;;;34.08;;
84866;SDS011;75123;51.788;4.654;2024-01-11T05:36:08;35.46;;;34.74;;
84866;SDS011;75123;51.788;4.654;2024-01-11T05:38:34;35.28;;;34.38;;
84866;SDS011;75123;51.788;4.654;2024-01-11T05:41:00;36.31;;;35.40;;
84866;SDS011;75123;51.788;4.654;2024-01-11T05:43:26;35.88;;;34.95;;
84866;SDS011;75123;51.788;4.654;2024-01-11T05:45:52;36.04;;;35.17;;
84866;SDS011;75123;51.788;4.654;2024-01-11T05:48:17;36.97;;;36.25;;
84866;SDS011;75123;51.788;4.654;2024-01-11T05:50:43;37.43;;;36.66;;
84866;SDS011;75123;51.788;4.654;2024-01-11T05:53:09;36.46;;;35.52;;
84866;SDS011;75123;51.788;4.654;2024-01-11T05:55:35;36.50;;;35.46;;
84866;SDS011;75123;51.788;4.654;2024-01-11T05:58:00;36.81;;;35.87;;
84866;SDS011;75123;51.788;4.654;2024-01-11T06:00:26;36.94;;;36.07;;
84866;SDS011;75123;51.788;4.654;2024-01-11T06:02:51;36.68;;;35.78;;
84866;SDS011;75123;51.788;4.654;2024-01-11T06:05:17;36.62;;;35.67;;
84866;SDS011;75123;51.788;4.654;2024-01-11T06:07:42;36.62;;;35.89;;
84866;SDS011;75123;51.788;4.654;2024-01-11T06:10:08;40.03;;;39.08;;
84866;SDS011;75123;51.788;4.654;2024-01-11T06:12:34;37.36;;;36.53;;
84866;SDS011;75123;51.788;4.654;2024-01-11T06:15:00;38.71;;;37.79;;
84866;SDS011;75123;51.788;4.654;2024-01-11T06:17:26;38.70;;;37.70;;
84866;SDS011;75123;51.788;4.654;2024-01-11T06:19:52;39.14;;;38.19;;
84866;SDS011;75123;51.788;4.654;2024-01-11T06:22:18;39.07;;;38.08;;
84866;SDS011;75123;51.788;4.654;2024-01-11T06:24:43;39.55;;;38.47;;
84866;SDS011;75123;51.788;4.654;2024-01-11T06:27:09;38.44;;;37.51;;
84866;SDS011;75123;51.788;4.654;2024-01-11T06:29:34;39.21;;;38.23;;
84866;SDS011;75123;51.788;4.654;2024-01-11T06:32:00;41.50;;;40.22;;
84866;SDS011;75123;51.788;4.654;2024-01-11T06:34:25;41.77;;;40.48;;
84866;SDS011;75123;51.788;4.654;2024-01-11T06:36:51;41.03;;;39.91;;
84866;SDS011;75123;51.788;4.654;2024-01-11T06:39:17;40.37;;;39.10;;
84866;SDS011;75123;51.788;4.654;2024-01-11T06:41:43;39.81;;;38.92;;
84866;SDS011;75123;51.788;4.654;2024-01-11T06:44:08;41.58;;;40.32;;
84866;SDS011;75123;51.788;4.654;2024-01-11T06:46:34;43.05;;;41.82;;
84866;SDS011;75123;51.788;4.654;2024-01-11T06:49:01;41.60;;;40.54;;
84866;SDS011;75123;51.788;4.654;2024-01-11T06:51:27;41.97;;;41.12;;
84866;SDS011;75123;51.788;4.654;2024-01-11T06:53:52;43.17;;;42.00;;
84866;SDS011;75123;51.788;4.654;2024-01-11T06:56:19;44.37;;;43.26;;
84866;SDS011;75123;51.788;4.654;2024-01-11T06:58:46;44.71;;;43.45;;
84866;SDS011;75123;51.788;4.654;2024-01-11T07:01:11;44.13;;;42.89;;
84866;SDS011;75123;51.788;4.654;2024-01-11T07:03:37;45.77;;;44.47;;
84866;SDS011;75123;51.788;4.654;2024-01-11T07:06:04;46.46;;;45.13;;
84866;SDS011;75123;51.788;4.654;2024-01-11T07:08:30;46.00;;;44.78;;
84866;SDS011;75123;51.788;4.654;2024-01-11T07:10:56;47.34;;;45.95;;
84866;SDS011;75123;51.788;4.654;2024-01-11T07:13:22;47.89;;;46.57;;
84866;SDS011;75123;51.788;4.654;2024-01-11T07:15:47;48.16;;;46.73;;
84866;SDS011;75123;51.788;4.654;2024-01-11T07:18:14;49.05;;;47.43;;
84866;SDS011;75123;51.788;4.654;2024-01-11T07:20:39;49.16;;;47.63;;
84866;SDS011;75123;51.788;4.654;2024-01-11T07:23:05;48.96;;;47.46;;
84866;SDS011;75123;51.788;4.654;2024-01-11T07:25:31;49.32;;;48.03;;
84866;SDS011;75123;51.788;4.654;2024-01-11T07:27:57;48.97;;;47.84;;
84866;SDS011;75123;51.788;4.654;2024-01-11T07:30:23;50.37;;;48.81;;
84866;SDS011;75123;51.788;4.654;2024-01-11T07:32:49;50.92;;;49.54;;
84866;SDS011;75123;51.788;4.654;2024-01-11T07:35:14;51.74;;;50.32;;
84866;SDS011;75123;51.788;4.654;2024-01-11T07:37:40;50.54;;;48.97;;
84866;SDS011;75123;51.788;4.654;2024-01-11T07:40:06;50.83;;;49.46;;
84866;SDS011;75123;51.788;4.654;2024-01-11T07:42:37;51.18;;;49.52;;
84866;SDS011;75123;51.788;4.654;2024-01-11T07:45:04;52.36;;;50.79;;
84866;SDS011;75123;51.788;4.654;2024-01-11T07:47:30;53.86;;;52.24;;
84866;SDS011;75123;51.788;4.654;2024-01-11T07:49:56;54.09;;;52.60;;
84866;SDS011;75123;51.788;4.654;2024-01-11T07:52:21;54.60;;;52.71;;
84866;SDS011;75123;51.788;4.654;2024-01-11T07:54:47;54.83;;;52.92;;
84866;SDS011;75123;51.788;4.654;2024-01-11T07:57:12;54.57;;;52.93;;
84866;SDS011;75123;51.788;4.654;2024-01-11T07:59:38;55.15;;;53.38;;
84866;SDS011;75123;51.788;4.654;2024-01-11T08:02:04;55.49;;;53.57;;
84866;SDS011;75123;51.788;4.654;2024-01-11T08:04:31;55.06;;;53.38;;
84866;SDS011;75123;51.788;4.654;2024-01-11T08:06:57;56.06;;;54.11;;
84866;SDS011;75123;51.788;4.654;2024-01-11T08:09:25;55.73;;;54.05;;
84866;SDS011;75123;51.788;4.654;2024-01-11T08:11:51;55.24;;;53.55;;
84866;SDS011;75123;51.788;4.654;2024-01-11T08:14:17;54.84;;;53.07;;
84866;SDS011;75123;51.788;4.654;2024-01-11T08:16:43;55.57;;;54.03;;
84866;SDS011;75123;51.788;4.654;2024-01-11T08:19:08;56.65;;;54.77;;
84866;SDS011;75123;51.788;4.654;2024-01-11T08:21:35;55.49;;;53.66;;
84866;SDS011;75123;51.788;4.654;2024-01-11T08:24:01;56.07;;;54.33;;
84866;SDS011;75123;51.788;4.654;2024-01-11T08:26:28;56.14;;;54.13;;
84866;SDS011;75123;51.788;4.654;2024-01-11T08:28:55;54.56;;;52.80;;
84866;SDS011;75123;51.788;4.654;2024-01-11T08:31:20;55.25;;;53.65;;
84866;SDS011;75123;51.788;4.654;2024-01-11T08:33:46;55.71;;;54.07;;
84866;SDS011;75123;51.788;4.654;2024-01-11T08:36:11;56.04;;;54.52;;
84866;SDS011;75123;51.788;4.654;2024-01-11T08:38:37;58.15;;;56.21;;
84866;SDS011;75123;51.788;4.654;2024-01-11T08:41:03;57.23;;;55.18;;
84866;SDS011;75123;51.788;4.654;2024-01-11T08:43:29;56.51;;;54.97;;
84866;SDS011;75123;51.788;4.654;2024-01-11T08:45:55;57.34;;;55.48;;
84866;SDS011;75123;51.788;4.654;2024-01-11T08:48:20;57.54;;;55.76;;
84866;SDS011;75123;51.788;4.654;2024-01-11T08:50:46;57.25;;;55.33;;
84866;SDS011;75123;51.788;4.654;2024-01-11T08:53:12;57.45;;;55.76;;
84866;SDS011;75123;51.788;4.654;2024-01-11T08:55:37;56.15;;;54.55;;
84866;SDS011;75123;51.788;4.654;2024-01-11T08:58:03;57.22;;;55.44;;
84866;SDS011;75123;51.788;4.654;2024-01-11T09:00:29;57.98;;;56.11;;
84866;SDS011;75123;51.788;4.654;2024-01-11T09:02:55;57.47;;;55.92;;
84866;SDS011;75123;51.788;4.654;2024-01-11T09:05:20;57.26;;;55.69;;
84866;SDS011;75123;51.788;4.654;2024-01-11T09:07:46;57.46;;;55.61;;
84866;SDS011;75123;51.788;4.654;2024-01-11T09:10:12;58.90;;;56.90;;
84866;SDS011;75123;51.788;4.654;2024-01-11T09:12:37;57.77;;;56.00;;
84866;SDS011;75123;51.788;4.654;2024-01-11T09:15:03;57.77;;;55.78;;
84866;SDS011;75123;51.788;4.654;2024-01-11T09:17:29;58.42;;;56.65;;
84866;SDS011;75123;51.788;4.654;2024-01-11T09:19:55;57.39;;;55.47;;
84866;SDS011;75123;51.788;4.654;2024-01-11T09:22:20;57.37;;;55.64;;
84866;SDS011;75123;51.788;4.654;2024-01-11T09:24:46;58.49;;;56.66;;
84866;SDS011;75123;51.788;4.654;2024-01-11T09:27:11;57.95;;;56.22;;
84866;SDS011;75123;51.788;4.654;2024-01-11T09:29:41;57.79;;;56.37;;
84866;SDS011;75123;51.788;4.654;2024-01-11T09:32:07;57.68;;;55.94;;
84866;SDS011;75123;51.788;4.654;2024-01-11T09:34:33;56.62;;;54.98;;
84866;SDS011;75123;51.788;4.654;2024-01-11T09:36:58;56.96;;;55.12;;
84866;SDS011;75123;51.788;4.654;2024-01-11T09:39:24;57.85;;;56.01;;
84866;SDS011;75123;51.788;4.654;2024-01-11T09:42:06;57.14;;;55.43;;
84866;SDS011;75123;51.788;4.654;2024-01-11T09:44:32;56.91;;;55.30;;
84866;SDS011;75123;51.788;4.654;2024-01-11T09:46:58;56.33;;;54.57;;
84866;SDS011;75123;51.788;4.654;2024-01-11T09:49:25;57.90;;;56.19;;
84866;SDS011;75123;51.788;4.654;2024-01-11T09:51:51;57.22;;;55.29;;
84866;SDS011;75123;51.788;4.654;2024-01-11T09:54:18;57.28;;;55.11;;
84866;SDS011;75123;51.788;4.654;2024-01-11T09:56:46;57.94;;;56.11;;
84866;SDS011;75123;51.788;4.654;2024-01-11T09:59:12;57.23;;;55.03;;
84866;SDS011;75123;51.788;4.654;2024-01-11T10:01:38;57.96;;;56.04;;
84866;SDS011;75123;51.788;4.654;2024-01-11T10:04:03;57.45;;;55.72;;
84866;SDS011;75123;51.788;4.654;2024-01-11T10:06:31;57.05;;;55.21;;
84866;SDS011;75123;51.788;4.654;2024-01-11T10:08:58;55.58;;;53.80;;
84866;SDS011;75123;51.788;4.654;2024-01-11T10:11:24;53.83;;;52.40;;
84866;SDS011;75123;51.788;4.654;2024-01-11T10:13:55;53.06;;;51.72;;
84866;SDS011;75123;51.788;4.654;2024-01-11T10:16:21;52.54;;;50.76;;
84866;SDS011;75123;51.788;4.654;2024-01-11T10:18:47;53.49;;;51.67;;
84866;SDS011;75123;51.788;4.654;2024-01-11T10:21:12;51.98;;;50.42;;
84866;SDS011;75123;51.788;4.654;2024-01-11T10:23:39;51.09;;;49.59;;
84866;SDS011;75123;51.788;4.654;2024-01-11T10:26:05;49.13;;;47.72;;
84866;SDS011;75123;51.788;4.654;2024-01-11T10:28:32;49.43;;;48.05;;
84866;SDS011;75123;51.788;4.654;2024-01-11T10:31:02;48.90;;;47.47;;
84866;SDS011;75123;51.788;4.654;2024-01-11T10:33:33;47.13;;;45.86;;
84866;SDS011;75123;51.788;4.654;2024-01-11T10:36:00;47.96;;;46.43;;
84866;SDS011;75123;51.788;4.654;2024-01-11T10:38:26;47.50;;;46.24;;
84866;SDS011;75123;51.788;4.654;2024-01-11T10:40:52;47.70;;;46.45;;
84866;SDS011;75123;51.788;4.654;2024-01-11T10:43:21;48.82;;;47.24;;
84866;SDS011;75123;51.788;4.654;2024-01-11T10:45:50;48.21;;;46.70;;
84866;SDS011;75123;51.788;4.654;2024-01-11T10:48:19;47.29;;;46.04;;
84866;SDS011;75123;51.788;4.654;2024-01-11T10:50:46;47.79;;;46.62;;
84866;SDS011;75123;51.788;4.654;2024-01-11T10:53:42;46.92;;;45.65;;
84866;SDS011;75123;51.788;4.654;2024-01-11T10:56:11;46.06;;;44.68;;
84866;SDS011;75123;51.788;4.654;2024-01-11T10:58:37;46.08;;;44.80;;
84866;SDS011;75123;51.788;4.654;2024-01-11T11:01:05;45.91;;;44.53;;
84866;SDS011;75123;51.788;4.654;2024-01-11T11:03:31;44.02;;;42.67;;
84866;SDS011;75123;51.788;4.654;2024-01-11T11:05:59;41.49;;;40.33;;
84866;SDS011;75123;51.788;4.654;2024-01-11T11:08:26;37.69;;;36.59;;
84866;SDS011;75123;51.788;4.654;2024-01-11T11:10:56;36.69;;;35.47;;
84866;SDS011;75123;51.788;4.654;2024-01-11T11:13:22;34.46;;;33.23;;
84866;SDS011;75123;51.788;4.654;2024-01-11T11:15:49;33.30;;;32.46;;
84866;SDS011;75123;51.788;4.654;2024-01-11T11:18:14;32.37;;;31.32;;
84866;SDS011;75123;51.788;4.654;2024-01-11T11:20:41;32.26;;;31.39;;
84866;SDS011;75123;51.788;4.654;2024-01-11T11:23:07;32.53;;;31.65;;
84866;SDS011;75123;51.788;4.654;2024-01-11T11:25:39;32.94;;;32.02;;
84866;SDS011;75123;51.788;4.654;2024-01-11T11:28:06;34.30;;;33.18;;
84866;SDS011;75123;51.788;4.654;2024-01-11T11:30:38;34.56;;;33.50;;
84866;SDS011;75123;51.788;4.654;2024-01-11T11:33:09;35.28;;;34.40;;
84866;SDS011;75123;51.788;4.654;2024-01-11T11:35:42;36.47;;;35.34;;
84866;SDS011;75123;51.788;4.654;2024-01-11T11:38:08;36.09;;;35.08;;
84866;SDS011;75123;51.788;4.654;2024-01-11T11:40:42;36.54;;;35.47;;
84866;SDS011;75123;51.788;4.654;2024-01-11T11:43:10;35.85;;;34.83;;
84866;SDS011;75123;51.788;4.654;2024-01-11T11:45:37;35.80;;;34.67;;
84866;SDS011;75123;51.788;4.654;2024-01-11T11:51:06;35.00;;;34.11;;
84866;SDS011;75123;51.788;4.654;2024-01-11T11:53:35;35.32;;;34.22;;
84866;SDS011;75123;51.788;4.654;2024-01-11T11:56:02;35.75;;;34.42;;
84866;SDS011;75123;51.788;4.654;2024-01-11T11:58:31;35.32;;;34.16;;
84866;SDS011;75123;51.788;4.654;2024-01-11T12:00:58;35.20;;;34.29;;
84866;SDS011;75123;51.788;4.654;2024-01-11T12:03:31;36.47;;;35.34;;
84866;SDS011;75123;51.788;4.654;2024-01-11T12:05:58;34.81;;;33.77;;
84866;SDS011;75123;51.788;4.654;2024-01-11T12:08:25;34.16;;;33.17;;
84866;SDS011;75123;51.788;4.654;2024-01-11T12:10:51;35.34;;;34.23;;
84866;SDS011;75123;51.788;4.654;2024-01-11T12:13:20;33.24;;;32.27;;
84866;SDS011;75123;51.788;4.654;2024-01-11T12:15:46;34.41;;;33.34;;
84866;SDS011;75123;51.788;4.654;2024-01-11T12:18:12;34.00;;;33.08;;
84866;SDS011;75123;51.788;4.654;2024-01-11T12:20:37;32.62;;;31.77;;
84866;SDS011;75123;51.788;4.654;2024-01-11T12:23:03;32.47;;;31.58;;
84866;SDS011;75123;51.788;4.654;2024-01-11T12:25:30;31.82;;;31.13;;
84866;SDS011;75123;51.788;4.654;2024-01-11T12:27:56;32.07;;;31.03;;
84866;SDS011;75123;51.788;4.654;2024-01-11T12:30:22;31.25;;;30.85;;
84866;SDS011;75123;51.788;4.654;2024-01-11T12:32:48;30.81;;;29.98;;
84866;SDS011;75123;51.788;4.654;2024-01-11T12:35:15;32.38;;;31.54;;
84866;SDS011;75123;51.788;4.654;2024-01-11T12:37:51;31.46;;;30.73;;
84866;SDS011;75123;51.788;4.654;2024-01-11T12:40:17;30.49;;;29.84;;
84866;SDS011;75123;51.788;4.654;2024-01-11T12:42:43;30.94;;;30.33;;
84866;SDS011;75123;51.788;4.654;2024-01-11T12:45:09;30.51;;;30.09;;
84866;SDS011;75123;51.788;4.654;2024-01-11T12:47:34;31.35;;;30.72;;
84866;SDS011;75123;51.788;4.654;2024-01-11T12:50:00;31.49;;;30.81;;
84866;SDS011;75123;51.788;4.654;2024-01-11T12:52:26;29.25;;;28.74;;
84866;SDS011;75123;51.788;4.654;2024-01-11T12:54:52;29.85;;;29.11;;
84866;SDS011;75123;51.788;4.654;2024-01-11T12:57:18;28.55;;;27.72;;
84866;SDS011;75123;51.788;4.654;2024-01-11T12:59:45;28.04;;;27.39;;
84866;SDS011;75123;51.788;4.654;2024-01-11T13:02:10;27.73;;;27.11;;
84866;SDS011;75123;51.788;4.654;2024-01-11T13:04:40;27.25;;;26.74;;
84866;SDS011;75123;51.788;4.654;2024-01-11T13:07:08;27.65;;;26.93;;
84866;SDS011;75123;51.788;4.654;2024-01-11T13:09:34;27.72;;;26.83;;
84866;SDS011;75123;51.788;4.654;2024-01-11T13:12:00;26.45;;;25.86;;
84866;SDS011;75123;51.788;4.654;2024-01-11T13:14:25;26.14;;;25.53;;
84866;SDS011;75123;51.788;4.654;2024-01-11T13:16:51;27.28;;;26.56;;
84866;SDS011;75123;51.788;4.654;2024-01-11T13:19:16;25.59;;;24.86;;
84866;SDS011;75123;51.788;4.654;2024-01-11T13:21:42;24.97;;;24.25;;
84866;SDS011;75123;51.788;4.654;2024-01-11T13:24:07;25.50;;;25.24;;
84866;SDS011;75123;51.788;4.654;2024-01-11T13:26:33;25.36;;;24.93;;
84866;SDS011;75123;51.788;4.654;2024-01-11T13:29:00;24.59;;;24.05;;
84866;SDS011;75123;51.788;4.654;2024-01-11T13:31:25;24.97;;;24.63;;
84866;SDS011;75123;51.788;4.654;2024-01-11T13:33:51;23.98;;;23.45;;
84866;SDS011;75123;51.788;4.654;2024-01-11T13:36:17;23.91;;;23.28;;
84866;SDS011;75123;51.788;4.654;2024-01-11T13:38:43;23.69;;;22.97;;
84866;SDS011;75123;51.788;4.654;2024-01-11T13:41:08;23.73;;;23.17;;
84866;SDS011;75123;51.788;4.654;2024-01-11T13:43:34;24.96;;;24.43;;
84866;SDS011;75123;51.788;4.654;2024-01-11T13:46:00;24.35;;;23.91;;
84866;SDS011;75123;51.788;4.654;2024-01-11T13:48:30;24.13;;;23.61;;
84866;SDS011;75123;51.788;4.654;2024-01-11T13:50:58;27.00;;;26.65;;
84866;SDS011;75123;51.788;4.654;2024-01-11T13:53:25;25.57;;;24.98;;
84866;SDS011;75123;51.788;4.654;2024-01-11T13:55:50;25.68;;;25.18;;
84866;SDS011;75123;51.788;4.654;2024-01-11T13:58:16;26.42;;;25.87;;
84866;SDS011;75123;51.788;4.654;2024-01-11T14:00:43;25.86;;;25.27;;
84866;SDS011;75123;51.788;4.654;2024-01-11T14:03:09;26.12;;;25.47;;
84866;SDS011;75123;51.788;4.654;2024-01-11T14:05:36;26.18;;;25.60;;
84866;SDS011;75123;51.788;4.654;2024-01-11T14:08:02;26.14;;;25.60;;
84866;SDS011;75123;51.788;4.654;2024-01-11T14:10:30;26.24;;;25.77;;
84866;SDS011;75123;51.788;4.654;2024-01-11T14:12:58;25.98;;;25.42;;
84866;SDS011;75123;51.788;4.654;2024-01-11T14:15:24;26.18;;;25.59;;
84866;SDS011;75123;51.788;4.654;2024-01-11T14:17:50;25.95;;;25.26;;